EDFH/HHN METAR and TAF weather

Enter ICAO airport designator
Station Type Date Time Source
EDFH METAR 2020/01/20 15:50 UTC NOAA

EDFH 201550Z 02007KT 9999 SCT022 01/M02 Q1043


Station Type Date Time Source
EDFH Decoded METAR 2020/01/20 15:50 UTC NOAA

Hahn, Germany (EDFH) 49-57N 007-16E 498M
Jan 20, 2020 - 10:50 AM EST / 2020.01.20 1550 UTC
Wind: from the NNE (020 degrees) at 8 MPH (7 KT):0
Visibility: greater than 7 mile(s):0
Sky conditions: partly cloudy
Temperature: 33 F (1 C)
Windchill: 26 F (-3 C):1
Dew Point: 28 F (-2 C)
Relative Humidity: 80%
Pressure (altimeter): 30.80 in. Hg (1043 hPa)
ob: EDFH 201550Z 02007KT 9999 SCT022 01/M02 Q1043
cycle: 16

Station Type Date Time Source
EDFH TAF 2020/01/20 12:27 UTC NOAA

TAF EDFH 201100Z 2012/2112 05007KT 9999 SCT025

Example: see airport list